Flight Track Log - Related Links

Times and Time Zones

All times are in EDT time to prevent confusion due to time zone crossing. See the WSG956 flight status page for this flight to view local times or setup timezone preferences in your user account.

Time Position Orientation Groundspeed Altitude Reporting Facility
EDT Latitude Longitude Course Direction KTS MPH feet Rate Location/Type
Wed 04:56:53 PM 50.1167 -91.8167 356° North 160 184 4,400  Level Winnipeg Center
Wed 04:57:53 PM 50.1500 -91.8500 327° Northwest 160 184 6,300 1,850 Climbing Winnipeg Center
Wed 04:58:53 PM 50.2000 -91.8333 12° North 160 184 8,100 1,600 Climbing Winnipeg Center
Wed 04:59:53 PM 50.2333 -91.8667 327° Northwest 170 196 9,500 1,533 Climbing Winnipeg Center
Wed 05:01:00 PM 50.4780 -91.9167 North  Level FlightAware
Wed 05:01:53 PM 50.3500 -91.8833 355° North 190 219 12,700  Level Winnipeg Center
Wed 05:02:00 PM 50.5410 -91.9224 356° North  Level FlightAware
Wed 05:02:53 PM 50.4000 -91.9000 348° North 190 219 14,300  Level Winnipeg Center
Wed 05:03:53 PM 50.4500 -91.8833 12° North 190 219 15,500 1,250 Climbing Winnipeg Center
Wed 05:04:53 PM 50.5000 -91.8833 360° North 190 219 16,800 1,200 Climbing Winnipeg Center
Wed 05:05:53 PM 50.5500 -91.9000 348° North 190 219 17,900 1,100 Climbing Winnipeg Center
Wed 05:06:53 PM 50.6000 -91.9000 360° North 190 219 19,000 1,050 Climbing Winnipeg Center
Wed 05:07:53 PM 50.6667 -91.9000 360° North 190 219 20,000 500 Climbing Winnipeg Center
Wed 05:08:53 PM 50.7167 -91.9167 348° North 200 230 20,000  Level Winnipeg Center
Wed 05:09:53 PM 50.7833 -91.9000 North 230 265 20,000 50 Level Winnipeg Center
Wed 05:10:53 PM 50.8500 -91.9333 342° North 240 276 20,100 50 Climbing Winnipeg Center
Wed 05:11:53 PM 50.9167 -91.9167 North 240 276 20,100  Level Winnipeg Center
Wed 05:12:53 PM 50.9833 -91.9333 351° North 250 288 20,100  Level Winnipeg Center
Wed 05:13:53 PM 51.0500 -91.9333 360° North 250 288 20,100  Level Winnipeg Center
Wed 05:14:53 PM 51.1167 -91.9500 351° North 250 288 20,100  Level Winnipeg Center
Wed 05:15:53 PM 51.1833 -91.9333 North 250 288 20,100  Level Winnipeg Center
Wed 05:16:53 PM 51.2667 -91.9667 346° North 250 288 20,100  Level Winnipeg Center
Wed 05:17:53 PM 51.3333 -91.9500 North 240 276 20,100  Level Winnipeg Center
Wed 05:18:53 PM 51.4000 -91.9667 351° North 240 276 20,100  Level Winnipeg Center
Wed 05:19:53 PM 51.4667 -91.9667 360° North 240 276 20,100  Level Winnipeg Center
Wed 05:20:53 PM 51.5333 -91.9833 351° North 240 276 20,100  Level Winnipeg Center
Wed 05:21:53 PM 51.6000 -91.9833 360° North 240 276 20,100  Level Winnipeg Center
Wed 05:22:53 PM 51.6667 -92.0000 351° North 240 276 20,100  Level Winnipeg Center
Wed 05:23:53 PM 51.7333 -91.9833 North 240 276 20,100  Level Winnipeg Center
Wed 05:24:53 PM 51.8000 -91.9833 360° North 240 276 20,100  Level Winnipeg Center
Wed 05:25:53 PM 51.8667 -92.0000 351° North 240 276 20,100 -50 Level Winnipeg Center
Wed 05:26:53 PM 51.9333 -92.0000 360° North 240 276 20,000 -50 Descending Winnipeg Center
Wed 05:27:53 PM 52.0000 -92.0167 351° North 240 276 20,000  Level Winnipeg Center
Wed 05:28:53 PM 52.0667 -92.0000 North 230 265 20,000  Level Winnipeg Center
Wed 05:29:53 PM 52.1333 -92.0333 354° North 240 276 20,000  Level Winnipeg Center
Wed 05:30:00 PM 52.1368 -92.0111 354° North  Level FlightAware
Wed 05:30:53 PM 52.2000 -92.0167 North 240 276 20,000  Level Winnipeg Center
Wed 05:31:53 PM 52.2667 -92.0333 351° North 230 265 20,000  Level Winnipeg Center
Wed 05:32:53 PM 52.3333 -92.0333 360° North 230 265 20,000  Level Winnipeg Center
Wed 05:33:53 PM 52.4000 -92.0500 351° North 240 276 20,000  Level Winnipeg Center
Wed 05:34:53 PM 52.4500 -92.0500 360° North 250 288 20,000  Level Winnipeg Center
Wed 05:35:53 PM 52.5167 -92.0667 351° North 240 276 20,000  Level Winnipeg Center
Wed 05:36:53 PM 52.5833 -92.0500 North 230 265 20,000  Level Winnipeg Center
Wed 05:37:53 PM 52.6500 -92.0833 343° North 240 276 20,000  Level Winnipeg Center
Wed 05:38:53 PM 52.7167 -92.0667 North 230 265 20,000  Level Winnipeg Center
Wed 05:39:53 PM 52.7833 -92.0667 360° North 240 276 20,000  Level Winnipeg Center
Wed 05:40:53 PM 52.8500 -92.0833 351° North 230 265 20,000 -350 Level Winnipeg Center
Wed 05:41:53 PM 52.9167 -92.0667 North 230 265 19,300 -800 Descending Winnipeg Center
Wed 05:42:53 PM 52.9667 -92.1000 338° Northwest 240 276 18,400 -950 Descending Winnipeg Center
Wed 05:43:53 PM 53.0500 -92.0833 North 240 276 17,400 -1,000 Descending Winnipeg Center
Wed 05:44:53 PM 53.1167 -92.1167 343° North 240 276 16,400 -1,250 Descending Winnipeg Center
Wed 05:45:53 PM 53.2000 -92.1000 North 240 276 14,900 -1,300 Descending Winnipeg Center
Wed 05:46:53 PM 53.2667 -92.1167 351° North 260 299 13,800 -1,100 Descending Winnipeg Center
Wed 05:47:53 PM 53.3333 -92.1167 360° North 260 299 12,700 -1,200 Descending Winnipeg Center
Wed 05:48:53 PM 53.4167 -92.1333 353° North 270 311 11,400 -1,150 Descending Winnipeg Center
Wed 05:49:53 PM 53.4833 -92.1167 North 270 311 10,400 -1,550 Descending Winnipeg Center
Wed 05:50:53 PM 53.5667 -92.1333 353° North 270 311 8,300 -1,850 Descending Winnipeg Center
Wed 05:51:53 PM 53.6333 -92.1333 360° North 250 288 6,700 -1,600 Descending Winnipeg Center
Wed 05:54:00 PM 53.7023 -92.1704 353° North  Level FlightAware
Wed 06:01:00 PM 53.8833 -92.1833 North  Level FlightAware
Wed 06:02:00 PM 53.8905 -92.1953 North  Level Estimated
Wed 06:03:00 PM 53.8905 -92.1953 North  Level Estimated
Wed 06:04:00 PM 53.8905 -92.1953 North  Level Estimated
Wed 06:05:00 PM 53.8905 -92.1953 North  Level Estimated
Wed 06:06:00 PM 53.8905 -92.1953 North  Level Estimated
Wed 06:07:00 PM 53.8905 -92.1953 North  Level Estimated
Wed 06:08:00 PM 53.8905 -92.1953 North  Level Estimated
Wed 06:09:00 PM 53.8905 -92.1953 North  Level Estimated
Wed 06:10:00 PM 53.8905 -92.1953 North  Level Estimated
Wed 06:11:00 PM 53.8905 -92.1953 North  Level Estimated

Login

Don't have an account? Register now (free) for customized features, flight alerts, and more!